Union Mills, Washington
Current Conditions -  °F | °C
As of 12:11 PM on Thursday 30 Oct 2014 (Local Time) from KOLM Reporting Station
Overcast Overcast  
Wind Chill: 54°   Ceiling: 400
Heat Index: 54°   Visibility: 9mi
Dew Point: 53°   Wind: 0mph
Humidity: 97%   Direction: NA
Pressure: 29.83"   Gusts: NA
Location:  46.9755°N, 122.872°W
Report Text: KOLM 301911Z 00000KT 9SM BKN004 BKN075 OVC095 12/12 A2983 RMK AO2 RAE11 P0000 T01220117
Loading
Personal Weather Stations






























Interactive Weather Map
Tropical Storm Tracking
New forecast layout! Learn more

10-Day Weather Forecast

Advertisements
Track Severe Weather on mobile